Time;durP1;ratioP1;P1;durP2;ratioP2;P2;SDS_P1;SDS_P2;PMS_P1;PMS_P2;Temp;Humidity;BMP_temperature;BMP_pressure;BME280_temperature;BME280_humidity;BME280_pressure;Samples;Min_cycle;Max_cycle;Signal;HPM_P1;HPM_P2
2022/03/02 00:05:28;;;;;;;20.83;6.78;;;6.10;99.90;;;;;;20670740;28;20042;-45
2022/03/02 00:15:29;;;;;;;19.20;7.47;;;6.10;99.90;;;;;;20669927;28;20049;-46
2022/03/02 00:25:30;;;;;;;15.55;5.97;;;6.10;99.90;;;;;;20660626;28;20057;-46
2022/03/02 00:35:31;;;;;;;19.42;7.13;;;6.10;99.90;;;;;;20670784;28;20050;-46
2022/03/02 00:45:33;;;;;;;15.48;6.70;;;6.00;99.90;;;;;;20681130;28;20030;-45
2022/03/02 00:55:36;;;;;;;16.98;6.40;;;6.00;99.90;;;;;;20661142;28;20046;-45
2022/03/02 01:05:39;;;;;;;16.15;6.97;;;6.00;99.90;;;;;;20666746;28;20100;-46
2022/03/02 01:15:40;;;;;;;14.40;6.97;;;5.90;99.90;;;;;;20681423;28;20490;-45
2022/03/02 01:25:41;;;;;;;31.33;9.38;;;5.90;99.90;;;;;;20665854;28;20042;-45
2022/03/02 01:35:43;;;;;;;13.73;6.38;;;5.80;99.90;;;;;;20669597;28;20050;-45
2022/03/02 01:45:44;;;;;;;14.68;6.68;;;5.70;99.90;;;;;;20651858;28;20290;-45
2022/03/02 01:55:45;;;;;;;16.02;6.50;;;5.60;99.90;;;;;;20658097;28;20053;-45
2022/03/02 02:05:47;;;;;;;17.85;6.88;;;5.40;99.90;;;;;;20665957;28;20046;-46
2022/03/02 02:15:53;;;;;;;15.70;6.88;;;5.40;99.90;;;;;;20671635;28;20540;-46
2022/03/02 02:25:55;;;;;;;17.98;7.00;;;5.40;99.90;;;;;;20670417;28;20061;-45
2022/03/02 02:35:58;;;;;;;12.27;6.32;;;5.40;99.90;;;;;;20660948;28;20037;-46
2022/03/02 02:45:59;;;;;;;16.65;7.30;;;5.50;99.90;;;;;;20664699;28;20401;-46
2022/03/02 02:56:01;;;;;;;21.70;7.03;;;5.50;99.90;;;;;;20699325;28;20053;-46
2022/03/02 03:06:04;;;;;;;15.52;7.13;;;5.50;99.90;;;;;;20685273;28;20551;-46
2022/03/02 03:16:05;;;;;;;19.42;7.53;;;5.50;99.90;;;;;;20695216;28;20045;-46
2022/03/02 03:26:06;;;;;;;22.42;6.03;;;5.50;99.90;;;;;;20690087;28;20045;-45
2022/03/02 03:36:07;;;;;;;16.63;7.63;;;5.50;99.90;;;;;;20696026;28;20045;-46
2022/03/02 03:46:08;;;;;;;18.30;6.43;;;5.40;99.90;;;;;;20670276;28;20038;-45
2022/03/02 03:56:10;;;;;;;15.45;6.20;;;5.50;99.90;;;;;;20672905;28;20395;-46
2022/03/02 04:06:14;;;;;;;19.55;6.38;;;5.40;99.90;;;;;;20667531;28;20125;-45
2022/03/02 04:16:15;;;;;;;16.33;7.07;;;5.30;99.90;;;;;;20680871;28;20463;-46
2022/03/02 04:26:17;;;;;;;16.92;6.72;;;5.30;99.90;;;;;;20664619;28;20787;-45
2022/03/02 04:36:19;;;;;;;14.95;8.13;;;5.20;99.90;;;;;;20672108;28;20332;-45
2022/03/02 04:46:20;;;;;;;17.33;6.22;;;5.20;99.90;;;;;;20652416;28;20035;-45
2022/03/02 04:56:21;;;;;;;16.13;6.60;;;5.20;99.90;;;;;;20674898;28;20053;-45
2022/03/02 05:06:22;;;;;;;17.95;6.85;;;5.20;99.90;;;;;;20681685;28;20510;-45
2022/03/02 05:16:23;;;;;;;20.55;7.10;;;5.10;99.90;;;;;;20686492;28;20042;-46
2022/03/02 05:26:24;;;;;;;17.48;7.57;;;5.20;99.90;;;;;;20675726;28;20065;-45
2022/03/02 05:36:26;;;;;;;17.23;7.07;;;5.20;99.90;;;;;;20686848;28;20069;-45
2022/03/02 05:46:28;;;;;;;18.27;6.47;;;5.10;99.90;;;;;;20665175;28;20250;-45
2022/03/02 05:56:30;;;;;;;20.58;6.93;;;5.10;99.90;;;;;;20667949;28;20086;-45
2022/03/02 06:06:33;;;;;;;17.80;6.45;;;5.00;99.90;;;;;;20687098;28;20034;-45
2022/03/02 06:16:34;;;;;;;16.38;7.25;;;5.00;99.90;;;;;;20675808;28;20042;-45
2022/03/02 06:26:36;;;;;;;13.38;6.57;;;4.90;99.90;;;;;;20683190;28;20518;-45
2022/03/02 06:36:37;;;;;;;18.88;7.60;;;4.90;99.90;;;;;;20687712;28;20090;-45
2022/03/02 06:46:50;;;;;;;18.17;7.25;;;4.90;99.90;;;;;;20679646;28;20054;-45
2022/03/02 06:56:55;;;;;;;18.48;6.25;;;4.80;99.90;;;;;;20698585;28;20046;-45
2022/03/02 07:06:56;;;;;;;16.02;7.18;;;4.90;99.90;;;;;;20679783;28;20057;-45
2022/03/02 07:16:59;;;;;;;15.38;6.40;;;4.90;99.90;;;;;;20673692;28;20056;-45
2022/03/02 07:27:01;;;;;;;13.80;6.90;;;4.90;99.90;;;;;;20676956;28;20041;-45
2022/03/02 07:37:02;;;;;;;15.10;6.28;;;5.00;99.90;;;;;;20681056;28;20433;-45
2022/03/02 07:47:04;;;;;;;19.38;6.00;;;4.90;99.90;;;;;;20679574;28;20030;-45
2022/03/02 07:57:13;;;;;;;14.43;6.15;;;4.90;99.90;;;;;;20688369;28;20603;-45
2022/03/02 08:07:15;;;;;;;11.95;5.80;;;5.10;99.90;;;;;;20664635;28;20052;-45
2022/03/02 08:17:19;;;;;;;17.17;6.88;;;5.40;99.90;;;;;;20653886;28;20521;-45
2022/03/02 08:27:21;;;;;;;14.02;6.50;;;5.60;99.90;;;;;;20647601;28;20037;-45
2022/03/02 08:37:24;;;;;;;16.00;7.43;;;5.70;99.90;;;;;;20651061;28;20065;-45
2022/03/02 08:47:26;;;;;;;17.85;6.93;;;6.10;99.90;;;;;;20643014;28;20447;-45
2022/03/02 08:57:29;;;;;;;19.88;7.43;;;6.40;99.90;;;;;;20648007;28;20490;-45
2022/03/02 09:07:30;;;;;;;17.40;7.00;;;6.60;99.90;;;;;;20661311;28;20137;-45
2022/03/02 09:17:31;;;;;;;12.85;6.38;;;6.90;99.90;;;;;;20676787;28;20046;-46
2022/03/02 09:27:34;;;;;;;22.75;7.40;;;7.30;99.90;;;;;;20661788;28;20422;-46
2022/03/02 09:37:37;;;;;;;19.55;7.50;;;7.40;99.90;;;;;;20665662;28;20517;-46
2022/03/02 09:47:53;;;;;;;13.18;5.43;;;7.60;99.90;;;;;;20646701;28;20065;-45
2022/03/02 09:57:57;;;;;;;15.80;6.63;;;7.90;99.90;;;;;;20646904;28;20105;-45
2022/03/02 10:08:04;;;;;;;15.80;7.25;;;8.20;99.90;;;;;;20632580;28;20041;-45
2022/03/02 10:18:07;;;;;;;16.55;6.10;;;8.50;99.90;;;;;;20640417;28;20093;-45
2022/03/02 10:28:09;;;;;;;13.25;5.55;;;9.00;99.90;;;;;;20632490;28;20042;-45
2022/03/02 10:38:16;;;;;;;12.57;4.85;;;9.40;99.90;;;;;;20645287;28;20042;-45
2022/03/02 10:48:55;;;;;;;12.77;4.47;;;9.50;99.90;;;;;;20648227;28;20030;-45
2022/03/02 10:58:59;;;;;;;11.10;4.05;;;9.70;99.90;;;;;;20628531;28;20053;-45
2022/03/02 11:09:02;;;;;;;9.10;4.15;;;10.10;99.90;;;;;;20670618;28;20030;-45
2022/03/02 11:19:15;;;;;;;11.30;4.65;;;10.40;99.90;;;;;;20673280;28;20045;-45
2022/03/02 11:29:18;;;;;;;10.38;4.47;;;10.90;99.90;;;;;;20678220;28;20541;-45
2022/03/02 11:39:23;;;;;;;12.77;4.97;;;11.60;98.70;;;;;;20659122;28;20055;-45
2022/03/02 11:49:45;;;;;;;8.70;4.53;;;12.10;99.90;;;;;;20667683;28;20418;-45
2022/03/02 11:59:48;;;;;;;16.00;4.68;;;12.60;97.40;;;;;;20674146;28;20045;-45
2022/03/02 12:09:49;;;;;;;10.27;4.28;;;13.20;98.30;;;;;;20666532;28;20045;-45
2022/03/02 12:19:53;;;;;;;11.50;5.03;;;13.20;96.70;;;;;;20670702;28;20433;-45
2022/03/02 12:30:00;;;;;;;11.55;4.53;;;13.30;95.10;;;;;;20677088;28;20054;-45
2022/03/02 12:40:09;;;;;;;10.67;4.60;;;13.50;93.70;;;;;;20670973;28;20042;-46
2022/03/02 12:50:12;;;;;;;10.63;4.60;;;13.80;93.70;;;;;;20670380;28;20414;-45
2022/03/02 13:00:21;;;;;;;8.80;3.55;;;14.20;93.00;;;;;;20669228;28;20394;-45
2022/03/02 13:10:25;;;;;;;13.13;4.15;;;14.50;93.20;;;;;;20667358;28;20101;-45
2022/03/02 13:20:26;;;;;;;11.27;3.97;;;14.90;91.50;;;;;;20656100;28;20057;-45
2022/03/02 13:30:27;;;;;;;9.88;3.75;;;14.80;90.30;;;;;;20664274;28;20041;-46
2022/03/02 13:40:35;;;;;;;6.60;3.70;;;15.10;85.70;;;;;;20667213;28;20782;-45
2022/03/02 13:50:56;;;;;;;6.88;3.83;;;15.30;90.10;;;;;;20663259;28;20061;-45
2022/03/02 14:01:26;;;;;;;6.25;2.53;;;15.20;83.80;;;;;;20664294;28;20042;-45
2022/03/02 14:11:33;;;;;;;6.63;2.70;;;14.90;82.90;;;;;;20663448;28;20050;-45
2022/03/02 14:21:35;;;;;;;5.13;2.58;;;14.60;83.10;;;;;;20661595;28;20053;-45
2022/03/02 14:31:53;;;;;;;9.48;3.50;;;14.90;82.60;;;;;;20663125;28;20046;-46
2022/03/02 14:42:13;;;;;;;5.40;2.30;;;15.70;81.70;;;;;;20669109;28;20053;-45
2022/03/02 14:52:26;;;;;;;8.02;2.50;;;15.90;78.70;;;;;;20670436;28;21105;-45
2022/03/02 15:02:29;;;;;;;7.43;3.17;;;15.10;81.10;;;;;;20668617;28;20407;-45
2022/03/02 15:12:33;;;;;;;8.82;3.25;;;14.50;80.80;;;;;;20670938;28;20054;-45
2022/03/02 15:22:35;;;;;;;7.00;3.17;;;14.20;79.50;;;;;;20665882;28;20065;-45
2022/03/02 15:32:37;;;;;;;9.82;3.17;;;13.80;78.50;;;;;;20659433;28;20050;-45
2022/03/02 15:42:48;;;;;;;6.70;3.10;;;13.30;80.20;;;;;;20672488;28;20033;-45
2022/03/02 15:52:56;;;;;;;6.85;3.22;;;13.00;79.60;;;;;;20670784;28;20050;-45
2022/03/02 16:02:59;;;;;;;7.35;3.20;;;12.60;79.40;;;;;;20665696;28;20033;-45
2022/03/02 16:13:10;;;;;;;8.82;3.20;;;12.40;82.10;;;;;;20672245;28;20057;-45
2022/03/02 16:23:14;;;;;;;6.85;2.63;;;12.20;82.00;;;;;;20668098;28;20030;-45
2022/03/02 16:33:15;;;;;;;6.78;2.55;;;12.00;83.30;;;;;;20637301;28;20054;-45
2022/03/02 16:43:16;;;;;;;6.32;2.08;;;11.60;84.40;;;;;;20669893;28;20652;-45
2022/03/02 16:53:21;;;;;;;11.05;2.80;;;11.40;87.70;;;;;;20649817;28;20061;-45
2022/03/02 17:03:22;;;;;;;5.07;1.80;;;11.10;87.20;;;;;;20657551;28;20038;-45
2022/03/02 17:13:30;;;;;;;7.60;2.75;;;10.90;88.60;;;;;;20662202;28;20057;-45
2022/03/02 17:23:31;;;;;;;12.32;2.60;;;10.70;88.40;;;;;;20662182;28;20041;-45
2022/03/02 17:33:33;;;;;;;5.95;3.13;;;10.50;90.10;;;;;;20644875;28;20050;-45
2022/03/02 17:43:34;;;;;;;9.02;3.15;;;10.30;91.70;;;;;;20648065;28;20030;-45
2022/03/02 17:53:36;;;;;;;6.80;2.70;;;10.10;91.70;;;;;;20652457;28;20049;-45
2022/03/02 18:03:37;;;;;;;10.02;2.70;;;10.00;94.20;;;;;;20654788;28;20038;-45
2022/03/02 18:13:40;;;;;;;6.90;3.17;;;9.70;94.00;;;;;;20651293;28;20043;-45
2022/03/02 18:23:41;;;;;;;5.68;2.42;;;9.50;96.10;;;;;;20650193;28;20045;-45
2022/03/02 18:33:43;;;;;;;9.68;3.33;;;9.20;98.30;;;;;;20655013;28;20081;-45
2022/03/02 18:43:45;;;;;;;7.70;3.53;;;8.80;99.10;;;;;;20648630;28;20037;-45
2022/03/02 18:53:47;;;;;;;5.32;2.45;;;8.60;99.90;;;;;;20644264;28;20046;-45
2022/03/02 19:03:49;;;;;;;9.00;3.17;;;8.30;99.90;;;;;;20648892;28;20104;-45
2022/03/02 19:13:50;;;;;;;10.60;2.90;;;8.00;99.90;;;;;;20656923;28;20758;-45
2022/03/02 19:23:52;;;;;;;10.43;5.03;;;7.90;99.90;;;;;;20676283;28;20057;-45
2022/03/02 19:33:53;;;;;;;10.68;3.40;;;7.80;99.90;;;;;;20675268;28;20077;-45
2022/03/02 19:43:54;;;;;;;9.48;3.55;;;7.60;99.90;;;;;;20670922;28;20046;-45
2022/03/02 19:53:57;;;;;;;11.10;3.65;;;7.60;99.90;;;;;;20682230;28;20050;-45
2022/03/02 20:04:01;;;;;;;10.00;3.50;;;7.60;99.90;;;;;;20683649;28;20049;-45
2022/03/02 20:14:03;;;;;;;11.32;4.85;;;7.50;99.90;;;;;;20676988;28;20069;-45
2022/03/02 20:24:06;;;;;;;7.95;3.67;;;7.20;99.90;;;;;;20666350;28;20061;-45
2022/03/02 20:34:07;;;;;;;11.18;4.00;;;6.80;99.90;;;;;;20667220;28;20502;-45
2022/03/02 20:44:08;;;;;;;10.27;4.20;;;6.50;99.90;;;;;;20661135;28;20053;-45
2022/03/02 20:54:09;;;;;;;10.73;4.05;;;6.30;99.90;;;;;;20661669;28;20414;-45
2022/03/02 21:04:11;;;;;;;8.35;3.55;;;6.10;99.90;;;;;;20654523;28;20034;-44
2022/03/02 21:14:12;;;;;;;10.52;4.13;;;6.00;99.90;;;;;;20657382;28;20521;-45
2022/03/02 21:24:14;;;;;;;8.98;3.92;;;5.90;99.90;;;;;;20653339;28;20044;-45
2022/03/02 21:34:15;;;;;;;11.30;4.32;;;6.00;99.90;;;;;;20645832;28;20046;-45
2022/03/02 21:44:16;;;;;;;11.55;3.83;;;5.90;99.90;;;;;;20640821;28;20046;-45
2022/03/02 21:54:17;;;;;;;7.10;3.17;;;5.90;99.90;;;;;;20633592;28;20403;-45
2022/03/02 22:04:18;;;;;;;9.25;3.13;;;5.90;99.90;;;;;;20653839;28;20049;-45
2022/03/02 22:14:20;;;;;;;10.25;3.90;;;5.90;99.90;;;;;;20647779;28;20050;-45
2022/03/02 22:24:21;;;;;;;10.70;4.18;;;5.90;99.90;;;;;;20650070;28;20053;-45
2022/03/02 22:34:22;;;;;;;11.25;3.83;;;5.70;99.90;;;;;;20647401;28;20305;-44
2022/03/02 22:44:23;;;;;;;9.95;4.68;;;5.60;99.90;;;;;;20654417;28;20034;-45
2022/03/02 22:54:24;;;;;;;11.55;4.03;;;5.40;99.90;;;;;;20647704;28;20057;-45
2022/03/02 23:14:45;;;;;;;11.60;3.45;;;5.20;99.90;;;;;;20656489;28;20057;-44
2022/03/02 23:24:46;;;;;;;11.93;3.92;;;5.10;99.90;;;;;;20653148;28;20033;-44
2022/03/02 23:34:47;;;;;;;6.97;3.13;;;5.00;99.90;;;;;;20665986;28;20396;-45
2022/03/02 23:44:48;;;;;;;10.15;3.03;;;4.90;99.90;;;;;;20664486;28;20045;-44
2022/03/02 23:54:49;;;;;;;10.38;3.53;;;4.90;99.90;;;;;;20663531;28;20502;-44
